Time;durP1;ratioP1;P1;durP2;ratioP2;P2;SDS_P1;SDS_P2;PMS_P1;PMS_P2;Temp;Humidity;BMP_temperature;BMP_pressure;BME280_temperature;BME280_humidity;BME280_pressure;Samples;Min_cycle;Max_cycle;Signal;HPM_P1;HPM_P2
2024/02/27 00:00:10;;;;;;;9.18;4.32;;;;;;;3.20;100.00;101743.03;6094607;19;20053;-81
2024/02/27 00:05:43;;;;;;;8.75;3.10;;;;;;;3.22;100.00;101749.09;6055889;19;20031;-76
2024/02/27 00:07:53;;;;;;;7.97;3.47;;;;;;;3.14;100.00;101743.88;6097889;19;20010;-82
2024/02/27 00:10:04;;;;;;;8.77;3.58;;;;;;;3.12;100.00;101748.19;6097686;19;19998;-79
2024/02/27 00:12:10;;;;;;;6.68;3.67;;;;;;;3.08;100.00;101744.72;6095117;19;20014;-80
2024/02/27 00:14:18;;;;;;;5.95;3.20;;;;;;;3.11;100.00;101746.47;6095313;19;20007;-81
2024/02/27 00:16:25;;;;;;;7.57;3.85;;;;;;;3.11;100.00;101745.56;6096488;19;20038;-80
2024/02/27 00:18:35;;;;;;;10.10;3.78;;;;;;;3.10;100.00;101749.03;6097024;19;20006;-80
2024/02/27 00:20:41;;;;;;;5.45;2.90;;;;;;;3.07;100.00;101747.28;6094892;19;20007;-81
2024/02/27 00:22:46;;;;;;;5.53;3.03;;;;;;;3.06;100.00;101749.03;6093385;19;20035;-80
2024/02/27 00:24:57;;;;;;;7.50;3.28;;;;;;;3.01;100.00;101752.47;6095474;19;20006;-81
2024/02/27 00:27:02;;;;;;;6.35;3.15;;;;;;;3.00;100.00;101754.19;6090446;19;20015;-81
2024/02/27 00:29:07;;;;;;;11.27;3.55;;;;;;;2.96;100.00;101760.22;6091551;19;20042;-80
2024/02/27 00:31:12;;;;;;;6.40;3.40;;;;;;;3.02;100.00;101761.97;6091420;19;20005;-80
2024/02/27 00:33:18;;;;;;;5.55;3.38;;;;;;;2.98;100.00;101762.84;6093397;19;20042;-82
2024/02/27 00:35:24;;;;;;;7.05;3.35;;;;;;;2.97;100.00;101764.53;6091894;19;20031;-81
2024/02/27 00:37:30;;;;;;;6.55;3.78;;;;;;;2.97;100.00;101774.94;6093031;19;20013;-81
2024/02/27 00:39:37;;;;;;;10.73;4.38;;;;;;;3.04;100.00;101776.72;6087677;19;20333;-82
2024/02/27 00:41:49;;;;;;;7.90;3.83;;;;;;;3.02;100.00;101772.38;6089795;19;20015;-80
2024/02/27 00:43:57;;;;;;;6.23;3.10;;;;;;;2.94;100.00;101774.91;6091022;19;20009;-80
2024/02/27 00:46:04;;;;;;;7.97;3.83;;;;;;;2.94;100.00;101780.09;6091964;19;20106;-79
2024/02/27 00:48:13;;;;;;;6.05;2.95;;;;;;;2.90;100.00;101782.66;6087259;19;20534;-79
2024/02/27 00:50:19;;;;;;;6.80;3.70;;;;;;;2.88;100.00;101774.88;6092376;19;20094;-80
2024/02/27 00:52:27;;;;;;;6.53;2.95;;;;;;;2.91;100.00;101771.44;6088808;19;21091;-82
2024/02/27 00:54:32;;;;;;;8.30;3.75;;;;;;;2.86;100.00;101771.41;6092501;19;20432;-81
2024/02/27 00:56:42;;;;;;;5.13;3.47;;;;;;;2.82;100.00;101772.28;6095746;19;20074;-81
2024/02/27 00:58:50;;;;;;;4.93;2.78;;;;;;;2.78;100.00;101773.09;6103492;19;20010;-81
2024/02/27 01:00:56;;;;;;;6.38;2.50;;;;;;;2.69;100.00;101778.25;6099977;19;20018;-81
2024/02/27 01:03:02;;;;;;;5.97;2.85;;;;;;;2.64;100.00;101778.19;6106671;19;20568;-82
2024/02/27 01:05:12;;;;;;;4.68;2.97;;;;;;;2.61;100.00;101780.78;6106625;19;20022;-81
2024/02/27 01:07:21;;;;;;;6.20;3.45;;;;;;;2.62;100.00;101775.56;6105799;19;20030;-80
2024/02/27 01:09:36;;;;;;;6.13;3.70;;;;;;;2.62;100.00;101772.97;6106743;19;20043;-81
2024/02/27 01:11:42;;;;;;;6.03;3.15;;;;;;;2.59;100.00;101782.47;6105490;19;20002;-81
2024/02/27 01:13:51;;;;;;;5.40;3.30;;;;;;;2.57;100.00;101781.59;6102301;19;20011;-81
2024/02/27 01:15:56;;;;;;;6.57;3.00;;;;;;;2.42;100.00;101780.63;6099984;19;20026;-80
2024/02/27 01:18:02;;;;;;;8.95;3.80;;;;;;;2.39;100.00;101775.38;6100796;19;20002;-81
2024/02/27 01:20:14;;;;;;;5.57;3.08;;;;;;;2.33;100.00;101779.69;6099387;19;20431;-80
2024/02/27 01:22:31;;;;;;;7.18;3.90;;;;;;;2.33;100.00;101782.28;6091510;19;20014;-80
2024/02/27 01:24:37;;;;;;;8.48;3.13;;;;;;;2.28;100.00;101789.13;6085497;19;20014;-81
2024/02/27 01:26:47;;;;;;;6.63;3.42;;;;;;;2.26;100.00;101790.84;6096741;19;20100;-81
2024/02/27 01:29:01;;;;;;;;;;;;;;;2.20;100.00;101786.47;6096421;19;20018;-80
2024/02/27 01:31:11;;;;;;;5.57;3.33;;;;;;;2.18;100.00;101791.63;6096155;19;19911;-81
2024/02/27 01:33:17;;;;;;;4.30;3.17;;;;;;;2.20;100.00;101795.13;6100022;19;20437;-81
2024/02/27 01:35:24;;;;;;;7.43;2.63;;;;;;;2.25;100.00;101800.34;6102316;19;20017;-80
2024/02/27 01:37:30;;;;;;;6.30;3.88;;;;;;;2.23;100.00;101801.19;6101183;19;20011;-83
2024/02/27 01:39:33;;;;;;;5.57;3.70;;;;;;;2.29;100.00;101798.66;6104438;19;20308;-81
2024/02/27 01:41:41;;;;;;;10.23;3.80;;;;;;;2.28;100.00;101797.78;6103493;19;20033;-81
2024/02/27 01:43:47;;;;;;;6.07;3.72;;;;;;;2.29;100.00;101803.81;6099441;19;20018;-81
2024/02/27 01:46:12;;;;;;;8.05;3.63;;;;;;;2.27;100.00;101814.22;6098270;19;20006;-82
2024/02/27 02:06:57;;;;;;;4.28;2.75;;;;;;;2.18;100.00;101820.16;6081892;19;20025;-80
2024/02/27 02:09:09;;;;;;;5.45;2.75;;;;;;;2.21;100.00;101821.91;6085137;19;20010;-83
2024/02/27 02:11:17;;;;;;;4.78;3.65;;;;;;;2.20;100.00;101815.00;6084504;19;20007;-82
2024/02/27 02:13:29;;;;;;;6.93;2.67;;;;;;;2.23;100.00;101819.34;6083673;19;20010;-81
2024/02/27 02:15:34;;;;;;;8.85;4.00;;;;;;;2.22;100.00;101818.47;6084179;19;20482;-80
2024/02/27 02:42:48;;;;;;;5.10;3.47;;;;;;;2.27;100.00;101836.69;6091429;19;20014;-81
2024/02/27 02:44:52;;;;;;;6.05;2.80;;;;;;;2.27;100.00;101836.69;6090089;19;20439;-81
2024/02/27 02:47:00;;;;;;;5.35;2.95;;;;;;;2.27;100.00;101832.38;6092498;19;20005;-81
2024/02/27 02:49:11;;;;;;;5.28;2.80;;;;;;;2.32;100.00;101827.22;6092943;19;20010;-81
2024/02/27 02:51:13;;;;;;;4.13;2.72;;;;;;;2.32;100.00;101825.50;6094955;19;20111;-80
2024/02/27 02:53:18;;;;;;;7.20;3.67;;;;;;;2.29;100.00;101825.47;6090214;19;20014;-80
2024/02/27 02:55:30;;;;;;;7.47;3.42;;;;;;;2.24;100.00;101824.56;6096072;19;20014;-81
2024/02/27 02:57:34;;;;;;;6.28;3.20;;;;;;;2.27;100.00;101828.91;6092494;19;20006;-79
2024/02/27 03:10:11;;;;;;;5.50;3.38;;;;;;;2.21;100.00;101821.91;6087991;19;20006;-76
2024/02/27 03:12:47;;;;;;;11.05;2.90;;;;;;;2.17;100.00;101826.22;6083246;19;20620;-80
2024/02/27 03:15:16;;;;;;;10.75;3.25;;;;;;;2.14;100.00;101828.78;6110408;19;20024;-75
2024/02/27 03:17:21;;;;;;;5.15;3.22;;;;;;;2.15;100.00;101833.09;6087220;19;20003;-80
2024/02/27 03:19:27;;;;;;;6.90;3.45;;;;;;;2.15;100.00;101832.22;6090660;19;20110;-81
2024/02/27 03:21:37;;;;;;;6.80;4.13;;;;;;;2.15;100.00;101835.69;6087802;19;20007;-80
2024/02/27 03:23:43;;;;;;;7.57;3.50;;;;;;;2.14;100.00;101835.69;6089810;19;20628;-81
2024/02/27 03:25:53;;;;;;;10.40;3.83;;;;;;;2.16;100.00;101828.81;6091141;19;20176;-79
2024/02/27 03:28:08;;;;;;;7.25;3.65;;;;;;;2.17;100.00;101831.41;6087144;19;20023;-80
2024/02/27 03:30:18;;;;;;;6.55;3.38;;;;;;;2.10;100.00;101834.78;6090364;19;20562;-80
2024/02/27 03:32:26;;;;;;;4.22;2.85;;;;;;;2.13;100.00;101828.75;6089467;19;20117;-81
2024/02/27 03:34:37;;;;;;;5.65;3.25;;;;;;;2.16;100.00;101837.44;6086763;19;20081;-81
2024/02/27 03:39:54;;;;;;;9.23;3.58;;;;;;;2.06;100.00;101838.19;5981637;19;2004771;-81
2024/02/27 03:42:05;;;;;;;5.90;3.30;;;;;;;2.15;100.00;101848.66;6099787;19;20357;-80
2024/02/27 03:44:13;;;;;;;7.88;2.95;;;;;;;2.14;100.00;101844.34;6101237;19;20031;-80
2024/02/27 03:46:56;;;;;;;6.47;3.03;;;;;;;2.13;100.00;101845.19;6118225;19;20011;-75
2024/02/27 03:49:05;;;;;;;8.60;3.78;;;;;;;2.13;100.00;101850.38;6105707;19;20038;-80
2024/02/27 03:51:10;;;;;;;4.85;3.00;;;;;;;2.11;100.00;101862.47;6107414;19;20006;-80
2024/02/27 03:53:17;;;;;;;8.35;3.97;;;;;;;2.15;100.00;101863.34;6101169;19;20043;-81
2024/02/27 03:55:27;;;;;;;11.75;3.90;;;;;;;2.13;100.00;101858.16;6102107;19;20010;-79
2024/02/27 03:57:34;;;;;;;7.75;3.30;;;;;;;2.09;100.00;101871.06;6104029;19;20011;-81
2024/02/27 03:59:41;;;;;;;5.32;3.42;;;;;;;2.17;100.00;101861.66;6102448;19;20055;-80
2024/02/27 04:01:46;;;;;;;9.30;3.78;;;;;;;2.07;100.00;101867.59;6100595;19;20022;-80
2024/02/27 04:03:52;;;;;;;7.43;3.58;;;;;;;2.14;100.00;101867.66;6099624;19;20222;-80
2024/02/27 04:06:00;;;;;;;6.95;3.35;;;;;;;2.17;100.00;101862.50;6098303;19;20418;-80
2024/02/27 04:08:08;;;;;;;4.32;3.05;;;;;;;2.25;100.00;101874.69;6095111;19;20439;-81
2024/02/27 04:10:15;;;;;;;5.28;2.83;;;;;;;2.23;100.00;101873.81;6090313;19;20043;-81
2024/02/27 04:12:21;;;;;;;4.68;3.08;;;;;;;2.12;100.00;101876.28;6091545;19;20038;-80
2024/02/27 04:14:28;;;;;;;5.00;3.35;;;;;;;2.24;100.00;101881.63;6090926;19;20018;-81
2024/02/27 04:16:39;;;;;;;5.72;3.15;;;;;;;2.16;100.00;101883.25;6094228;19;20010;-80
2024/02/27 04:18:45;;;;;;;5.07;2.92;;;;;;;2.22;100.00;101882.44;6097611;19;20006;-81
2024/02/27 04:20:56;;;;;;;11.43;3.05;;;;;;;2.16;100.00;101886.72;6098821;19;20007;-81
2024/02/27 04:23:01;;;;;;;8.40;3.20;;;;;;;2.24;100.00;101899.75;6099142;19;20022;-80
2024/02/27 04:25:08;;;;;;;5.95;3.40;;;;;;;2.20;100.00;101898.84;6099754;19;20522;-81
2024/02/27 04:27:13;;;;;;;4.35;2.22;;;;;;;2.23;100.00;101900.59;6102045;19;20010;-80
2024/02/27 04:29:18;;;;;;;6.70;3.47;;;;;;;2.21;100.00;101910.06;6104755;19;20017;-80
2024/02/27 04:31:23;;;;;;;7.68;3.15;;;;;;;2.23;100.00;101912.69;6104073;19;20006;-80
2024/02/27 04:33:35;;;;;;;9.25;3.40;;;;;;;2.20;100.00;101913.53;6088501;19;19999;-78
2024/02/27 04:35:43;;;;;;;7.63;3.50;;;;;;;2.19;100.00;101917.84;6096478;19;20011;-80
2024/02/27 04:37:50;;;;;;;7.18;3.13;;;;;;;2.18;100.00;101923.88;6093406;19;22084;-79
2024/02/27 04:46:17;;;;;;;4.45;2.95;;;;;;;2.15;100.00;101920.38;5988216;19;2004770;-80
2024/02/27 04:48:22;;;;;;;6.53;2.83;;;;;;;2.13;100.00;101922.09;6089856;19;20014;-79
2024/02/27 04:50:30;;;;;;;6.35;2.80;;;;;;;2.19;100.00;101924.78;6091366;19;20101;-81
2024/02/27 04:52:37;;;;;;;5.80;2.55;;;;;;;2.17;100.00;101927.34;6090928;19;20044;-81
2024/02/27 04:54:46;;;;;;;7.00;3.92;;;;;;;2.17;100.00;101927.34;6093869;19;20007;-81
2024/02/27 04:56:51;;;;;;;4.80;3.08;;;;;;;2.27;100.00;101928.31;6094631;19;20018;-80
2024/02/27 04:58:56;;;;;;;7.78;3.38;;;;;;;2.16;100.00;101933.38;6090719;19;20035;-81
2024/02/27 05:01:03;;;;;;;6.30;3.15;;;;;;;2.25;100.00;101931.75;6088661;19;20010;-80
2024/02/27 05:03:08;;;;;;;4.45;3.15;;;;;;;2.25;100.00;101934.34;6086989;19;20125;-81
2024/02/27 05:05:16;;;;;;;9.15;4.07;;;;;;;2.29;100.00;101929.22;6091899;19;20039;-80
2024/02/27 05:07:34;;;;;;;7.20;3.30;;;;;;;2.32;100.00;101937.03;6087435;19;20011;-81
2024/02/27 05:09:39;;;;;;;6.93;3.17;;;;;;;2.35;100.00;101936.19;6089000;19;20579;-80
2024/02/27 05:11:45;;;;;;;5.30;3.17;;;;;;;2.33;100.00;101945.66;6091139;19;20009;-80
2024/02/27 05:13:55;;;;;;;3.80;2.78;;;;;;;2.30;100.00;101945.66;6090201;19;20391;-80
2024/02/27 05:16:03;;;;;;;4.53;2.58;;;;;;;2.19;100.00;101948.13;6089864;19;20022;-80
2024/02/27 05:54:29;;;;;;;;;;;;;;;;;;;;;
2024/02/27 08:55:25;;;;;;;9.43;4.70;;;;;;;5.26;100.00;102036.66;6107662;19;20356;-78
2024/02/27 09:00:25;;;;;;;11.20;5.43;;;;;;;5.52;100.00;102042.78;6115416;19;20474;-77
2024/02/27 09:02:43;;;;;;;8.57;4.95;;;;;;;5.64;100.00;102027.13;6109201;19;20011;-76
2024/02/27 09:05:34;;;;;;;14.20;5.75;;;;;;;5.53;100.00;102026.25;6109603;19;20137;-77
2024/02/27 09:08:04;;;;;;;10.38;4.97;;;;;;;5.64;100.00;102025.38;6115069;19;20010;-76
2024/02/27 09:13:16;;;;;;;10.07;5.55;;;;;;;5.93;100.00;102040.13;5996387;19;2004957;-76
2024/02/27 09:18:43;;;;;;;11.77;5.78;;;;;;;5.99;100.00;102037.53;6143915;19;20010;-76
2024/02/27 09:24:31;;;;;;;14.82;5.65;;;;;;;5.99;100.00;102034.91;6091334;19;20014;-77
2024/02/27 09:27:12;;;;;;;11.38;5.22;;;;;;;6.00;100.00;102036.66;6120246;19;20015;-76
2024/02/27 09:32:11;;;;;;;9.13;5.38;;;;;;;6.11;100.00;102045.34;6119453;19;20011;-76
2024/02/27 09:34:36;;;;;;;11.10;4.40;;;;;;;6.30;100.00;102042.69;6118469;19;20522;-77
2024/02/27 09:37:07;;;;;;;8.13;4.80;;;;;;;6.07;100.00;102038.38;6114645;19;20009;-76
2024/02/27 09:39:19;;;;;;;10.35;5.65;;;;;;;6.11;100.00;102040.13;6112675;19;20014;-76
2024/02/27 09:45:11;;;;;;;9.82;4.88;;;;;;;6.43;100.00;102035.66;6114656;19;20017;-76
2024/02/27 09:47:33;;;;;;;10.27;6.20;;;;;;;6.54;100.00;102036.47;6113806;19;20034;-75
2024/02/27 09:49:48;;;;;;;9.82;5.10;;;;;;;6.36;100.00;102029.59;6114432;19;20635;-76
2024/02/27 09:51:57;;;;;;;12.45;5.78;;;;;;;6.43;100.00;102035.66;6115705;19;20006;-76
2024/02/27 09:54:03;;;;;;;13.10;5.88;;;;;;;6.66;100.00;102030.31;6116881;19;19998;-75
2024/02/27 09:56:16;;;;;;;9.02;5.10;;;;;;;6.65;100.00;102025.97;6126438;19;20090;-78
2024/02/27 09:58:31;;;;;;;9.60;5.27;;;;;;;7.13;100.00;102029.16;6028163;19;2004615;-77
2024/02/27 10:00:40;;;;;;;9.70;4.93;;;;;;;6.84;100.00;102031.97;6018656;19;2005583;-75
2024/02/27 10:02:49;;;;;;;11.77;5.95;;;;;;;6.59;100.00;102029.50;6127273;19;20010;-76
2024/02/27 10:04:59;;;;;;;12.43;5.18;;;;;;;6.85;100.00;102037.19;6116878;19;20063;-75
2024/02/27 10:07:12;;;;;;;11.75;5.53;;;;;;;7.20;100.00;102034.34;6098891;19;20047;-75
2024/02/27 10:09:20;;;;;;;10.15;5.97;;;;;;;7.57;100.00;102028.81;6092721;19;20030;-76
2024/02/27 10:11:26;;;;;;;11.52;4.95;;;;;;;7.65;100.00;102026.13;6094502;19;20021;-76
2024/02/27 10:13:36;;;;;;;9.63;5.07;;;;;;;7.79;100.00;102025.97;6088507;19;20015;-76
2024/02/27 10:15:41;;;;;;;12.02;5.53;;;;;;;7.85;100.00;102025.94;6089975;19;20421;-77
2024/02/27 10:17:49;;;;;;;10.15;5.10;;;;;;;7.58;100.00;102024.44;6090436;19;20482;-74
2024/02/27 10:19:59;;;;;;;10.05;4.40;;;;;;;7.72;100.00;102021.72;6087705;19;20351;-76
2024/02/27 10:22:08;;;;;;;9.60;4.65;;;;;;;8.09;100.00;102016.97;6088857;19;20342;-76
2024/02/27 10:24:24;;;;;;;9.05;5.03;;;;;;;8.16;100.00;102012.50;6084869;19;20056;-75
2024/02/27 10:26:31;;;;;;;9.57;4.15;;;;;;;8.27;100.00;102006.28;6086123;19;20015;-76
2024/02/27 10:28:39;;;;;;;9.02;4.20;;;;;;;8.16;100.00;102005.50;6086951;19;20042;-75
2024/02/27 10:30:46;;;;;;;9.80;4.35;;;;;;;8.48;100.00;102009.53;6083907;19;19998;-75
2024/02/27 10:32:52;;;;;;;9.30;4.35;;;;;;;8.58;100.00;102011.13;6081800;19;20007;-77
2024/02/27 10:34:57;;;;;;;8.00;4.13;;;;;;;8.42;100.00;102012.22;6085561;19;20074;-76
2024/02/27 10:37:09;;;;;;;6.68;3.70;;;;;;;8.40;100.00;102009.63;6083790;19;20015;-75
2024/02/27 10:39:16;;;;;;;7.43;4.85;;;;;;;8.31;100.00;102007.09;6084018;19;20054;-76
2024/02/27 10:41:26;;;;;;;7.70;4.32;;;;;;;8.20;100.00;102012.44;6089269;19;20700;-76
2024/02/27 10:43:36;;;;;;;11.68;5.28;;;;;;;8.36;100.00;102011.38;6085663;19;20011;-76
2024/02/27 10:45:44;;;;;;;10.80;4.32;;;;;;;8.49;100.00;102011.25;6087082;19;20038;-76
2024/02/27 10:47:49;;;;;;;8.50;4.53;;;;;;;8.45;100.00;102012.19;6088037;19;20014;-76
2024/02/27 10:49:53;;;;;;;6.80;3.97;;;;;;;8.53;100.00;102012.94;6089089;19;20039;-76
2024/02/27 10:52:00;;;;;;;9.90;4.40;;;;;;;8.72;100.00;102016.19;6084158;19;20006;-76
2024/02/27 10:54:08;;;;;;;8.35;4.28;;;;;;;8.50;100.00;102008.59;6085737;19;20021;-77
2024/02/27 10:56:16;;;;;;;10.07;4.00;;;;;;;8.87;100.00;102007.22;6084054;19;20015;-77
2024/02/27 10:58:28;;;;;;;8.07;4.57;;;;;;;9.21;100.00;102007.56;6086376;19;20014;-75
2024/02/27 11:00:35;;;;;;;10.77;5.15;;;;;;;9.08;100.00;102004.28;6083355;19;20108;-75
2024/02/27 11:02:49;;;;;;;9.25;4.00;;;;;;;8.85;100.00;102019.53;6088438;19;20017;-77
2024/02/27 11:04:55;;;;;;;8.68;3.90;;;;;;;9.15;100.00;102013.78;5990832;19;2004892;-77
2024/02/27 11:07:02;;;;;;;9.43;4.13;;;;;;;9.30;100.00;102017.94;6086377;19;20093;-77
2024/02/27 11:09:14;;;;;;;8.70;4.68;;;;;;;9.46;100.00;102008.06;6084990;19;20007;-79
2024/02/27 11:11:24;;;;;;;10.07;4.57;;;;;;;9.53;100.00;102014.94;6082478;19;20011;-75
2024/02/27 11:13:35;;;;;;;8.38;4.07;;;;;;;9.58;100.00;102007.81;6085694;19;20529;-76
2024/02/27 11:15:58;;;;;;;9.88;4.10;;;;;;;9.65;100.00;102009.44;6085893;19;20006;-77
2024/02/27 11:18:09;;;;;;;9.18;4.35;;;;;;;9.87;100.00;102007.31;6084352;19;20010;-77
2024/02/27 11:20:18;;;;;;;8.07;4.82;;;;;;;9.58;100.00;102005.19;6084033;19;20422;-76
2024/02/27 11:22:26;;;;;;;7.95;4.07;;;;;;;9.50;100.00;101999.22;6085578;19;20543;-77
2024/02/27 11:24:32;;;;;;;7.13;3.38;;;;;;;9.58;100.00;101996.47;6085087;19;20733;-78
2024/02/27 11:26:37;;;;;;;8.27;4.00;;;;;;;9.72;100.00;102001.50;6081584;19;20173;-76
2024/02/27 11:28:44;;;;;;;8.40;3.97;;;;;;;9.62;100.00;101996.41;6083230;19;20120;-79
2024/02/27 11:30:56;;;;;;;8.60;3.90;;;;;;;9.43;100.00;102000.25;6084784;19;20102;-78
2024/02/27 11:33:02;;;;;;;7.32;3.58;;;;;;;9.59;100.00;102000.84;6078218;19;20011;-77
2024/02/27 11:35:12;;;;;;;9.77;4.15;;;;;;;9.58;100.00;102004.34;6083104;19;20011;-79
2024/02/27 11:37:21;;;;;;;9.00;4.50;;;;;;;9.68;100.00;101993.66;6083990;19;20022;-79
2024/02/27 11:39:36;;;;;;;10.57;4.15;;;;;;;9.85;100.00;101995.97;6088141;19;20021;-78
2024/02/27 11:41:44;;;;;;;7.15;3.40;;;;;;;10.07;100.00;101991.16;6088407;19;20031;-79
2024/02/27 11:43:51;;;;;;;6.80;3.80;;;;;;;10.01;100.00;101987.81;6088286;19;20010;-79
2024/02/27 11:45:59;;;;;;;10.32;4.43;;;;;;;9.83;100.00;101986.41;6083435;19;20010;-80
2024/02/27 11:48:06;;;;;;;9.35;3.92;;;;;;;9.87;100.00;101988.06;6084331;19;20042;-79
2024/02/27 11:50:48;;;;;;;12.07;4.55;;;;;;;9.89;100.00;101981.00;6086070;19;20325;-78
2024/02/27 11:53:26;;;;;;;7.97;4.35;;;;;;;9.80;100.00;101982.06;6093152;19;20533;-79
2024/02/27 11:55:56;;;;;;;9.25;4.13;;;;;;;9.50;100.00;101986.09;6095309;19;20010;-80
2024/02/27 11:58:05;;;;;;;8.15;4.75;;;;;;;9.50;100.00;101970.34;6093467;19;20096;-77
2024/02/27 12:00:20;;;;;;;8.55;4.13;;;;;;;9.56;100.00;101962.41;6096794;19;20022;-77
2024/02/27 12:02:32;;;;;;;10.02;4.75;;;;;;;9.71;100.00;101963.84;6094742;19;20459;-77
2024/02/27 12:04:38;;;;;;;7.55;3.50;;;;;;;10.02;100.00;101966.75;6091504;19;20011;-77
2024/02/27 12:06:53;;;;;;;7.47;3.97;;;;;;;9.99;100.00;101968.59;6091429;19;20011;-77
2024/02/27 12:09:01;;;;;;;8.98;4.50;;;;;;;10.01;100.00;101967.66;6090336;19;20010;-76
2024/02/27 12:11:09;;;;;;;7.90;3.35;;;;;;;10.12;100.00;101967.44;6093942;19;20042;-77
2024/02/27 12:13:15;;;;;;;6.78;3.70;;;;;;;9.86;100.00;101960.06;6094669;19;20498;-77
2024/02/27 12:15:26;;;;;;;9.30;3.78;;;;;;;9.99;100.00;101958.09;6086483;19;20007;-76
2024/02/27 12:17:31;;;;;;;7.63;3.85;;;;;;;9.95;100.00;101957.25;6093462;19;20007;-77
2024/02/27 12:19:36;;;;;;;7.35;3.53;;;;;;;9.62;100.00;101962.28;6089416;19;20022;-77
2024/02/27 12:21:48;;;;;;;8.57;3.90;;;;;;;9.15;100.00;101968.34;6086165;19;20035;-76
2024/02/27 12:26:32;;;;;;;6.30;3.67;;;;;;;9.77;100.00;101962.88;6087181;19;20024;-76
2024/02/27 12:28:40;;;;;;;7.93;4.43;;;;;;;9.96;100.00;101955.53;6084503;19;20024;-76
2024/02/27 12:30:51;;;;;;;6.28;3.58;;;;;;;10.22;100.00;101955.00;6083547;19;20021;-76
2024/02/27 12:32:59;;;;;;;8.30;4.10;;;;;;;10.50;100.00;101950.88;6081869;19;20556;-76
2024/02/27 12:35:09;;;;;;;8.25;4.57;;;;;;;10.47;100.00;101961.44;6087013;19;20422;-77
2024/02/27 12:37:20;;;;;;;7.82;4.22;;;;;;;10.78;100.00;101963.41;6083088;19;20011;-77
2024/02/27 12:39:46;;;;;;;7.88;3.85;;;;;;;10.86;100.00;101956.19;6081766;19;20017;-76
2024/02/27 12:42:05;;;;;;;8.98;4.00;;;;;;;10.85;100.00;101953.59;6087460;19;20097;-76
2024/02/27 12:48:05;;;;;;;8.85;3.88;;;;;;;9.95;100.00;101961.66;6094173;19;20007;-77
2024/02/27 12:50:32;;;;;;;;;;;;;;;;;;;;;
2024/02/27 12:53:09;;;;;;;;;;;;;;;;;;;;;
2024/02/27 12:58:40;;;;;;;7.15;3.63;;;;;;;10.06;100.00;101946.56;6106216;19;20015;-77
2024/02/27 13:01:08;;;;;;;9.63;4.32;;;;;;;10.63;100.00;101940.94;5994525;19;2004804;-77
2024/02/27 13:03:46;;;;;;;8.20;3.88;;;;;;;10.26;100.00;101933.84;6092077;19;20017;-77
2024/02/27 13:06:16;;;;;;;8.50;4.18;;;;;;;10.74;100.00;101940.69;6083594;19;20014;-79
2024/02/27 13:08:25;;;;;;;8.88;3.88;;;;;;;10.58;100.00;101934.06;6088159;19;19998;-78
2024/02/27 13:10:39;;;;;;;9.93;4.05;;;;;;;10.95;100.00;101927.06;6088177;19;20106;-78
2024/02/27 13:13:16;;;;;;;8.23;3.72;;;;;;;11.22;100.00;101927.25;6085118;19;20106;-79
2024/02/27 13:15:23;;;;;;;;;;;;;;;11.14;100.00;101935.34;6085190;19;20474;-77
2024/02/27 13:17:30;;;;;;;8.15;4.07;;;;;;;11.31;100.00;101934.91;6084021;19;19919;-78
2024/02/27 13:19:35;;;;;;;9.10;3.95;;;;;;;11.51;100.00;101944.06;6078781;19;20002;-77
2024/02/27 13:21:55;;;;;;;5.70;3.30;;;;;;;11.45;100.00;101937.16;6081728;19;20014;-79
2024/02/27 13:24:24;;;;;;;9.05;4.15;;;;;;;11.20;100.00;101931.69;6081258;19;20025;-76
2024/02/27 13:26:42;;;;;;;10.30;3.78;;;;;;;10.64;100.00;101932.19;6080592;19;20037;-77
2024/02/27 13:28:58;;;;;;;12.43;6.60;;;;;;;11.32;100.00;101923.50;5991967;19;2004442;-78
2024/02/27 13:31:12;;;;;;;5.95;3.45;;;;;;;11.11;100.00;101921.38;6081138;19;20082;-78
2024/02/27 13:33:26;;;;;;;7.00;3.10;;;;;;;11.31;100.00;101918.25;6083680;19;20007;-80
2024/02/27 13:35:52;;;;;;;7.90;3.90;;;;;;;11.04;100.00;101918.06;6084605;19;20019;-77
2024/02/27 13:37:58;;;;;;;7.35;3.45;;;;;;;10.17;100.00;101918.31;6083806;19;20015;-76
2024/02/27 13:40:09;;;;;;;5.35;2.83;;;;;;;10.13;100.00;101929.75;6087024;19;20046;-80
2024/02/27 13:42:22;;;;;;;6.35;3.15;;;;;;;10.17;100.00;101920.06;6083200;19;20094;-79
2024/02/27 13:44:30;;;;;;;5.55;2.90;;;;;;;10.28;100.00;101907.59;6090768;19;20761;-79
2024/02/27 13:46:45;;;;;;;6.93;3.05;;;;;;;10.45;100.00;101913.34;6088351;19;20023;-79
2024/02/27 13:49:10;;;;;;;8.23;3.55;;;;;;;9.94;100.00;101912.66;6086496;19;20017;-77
2024/02/27 13:51:32;;;;;;;7.07;3.55;;;;;;;9.96;100.00;101914.38;5986767;19;2004668;-76
2024/02/27 13:53:54;;;;;;;7.63;3.58;;;;;;;10.49;100.00;101907.09;6086091;19;19998;-78
2024/02/27 13:56:21;;;;;;;6.75;3.35;;;;;;;10.55;100.00;101908.72;6093208;19;20500;-80
2024/02/27 13:58:59;;;;;;;9.65;3.35;;;;;;;10.78;100.00;101895.03;6099973;19;20003;-83
2024/02/27 14:01:09;;;;;;;7.22;3.88;;;;;;;10.49;100.00;101899.22;6101803;19;20014;-85
2024/02/27 14:03:17;;;;;;;5.85;2.83;;;;;;;10.27;100.00;101897.97;6104518;19;20011;-82
2024/02/27 14:05:50;;;;;;;6.38;3.38;;;;;;;10.83;100.00;101894.94;6023785;19;2004719;-83
2024/02/27 14:08:12;;;;;;;6.72;2.80;;;;;;;10.28;100.00;101895.31;6098555;19;20062;-83
2024/02/27 14:10:18;;;;;;;5.18;2.83;;;;;;;9.66;100.00;101892.22;6098165;19;20014;-81
2024/02/27 14:12:36;;;;;;;6.35;3.30;;;;;;;9.02;100.00;101894.28;6095141;19;20041;-79
2024/02/27 14:14:54;;;;;;;5.93;3.10;;;;;;;8.90;100.00;101886.59;6088470;19;20007;-82
2024/02/27 14:17:01;;;;;;;5.85;3.28;;;;;;;9.18;100.00;101887.84;6087739;19;20007;-80
2024/02/27 14:19:16;;;;;;;7.72;3.25;;;;;;;8.70;100.00;101882.56;6090169;19;20015;-80
2024/02/27 14:21:20;;;;;;;7.30;3.08;;;;;;;9.41;100.00;101883.97;6095055;19;20112;-83
2024/02/27 14:23:33;;;;;;;5.32;3.28;;;;;;;9.31;100.00;101891.13;6096870;19;20007;-80
2024/02/27 14:25:41;;;;;;;5.95;3.38;;;;;;;9.01;100.00;101895.19;6093441;19;20010;-79
2024/02/27 14:28:11;;;;;;;8.25;3.75;;;;;;;9.19;100.00;101886.13;6092657;19;20033;-80
2024/02/27 14:30:20;;;;;;;7.88;3.72;;;;;;;9.25;100.00;101890.41;5990910;19;2004671;-79
2024/02/27 14:32:41;;;;;;;7.78;3.20;;;;;;;9.11;100.00;101882.75;6093628;19;20041;-78
2024/02/27 14:35:00;;;;;;;7.05;3.30;;;;;;;9.31;100.00;101880.63;6095453;19;20011;-80
2024/02/27 14:37:34;;;;;;;5.88;2.92;;;;;;;9.48;100.00;101880.34;6092498;19;20474;-81
2024/02/27 14:39:54;;;;;;;7.55;3.13;;;;;;;9.41;100.00;101887.44;6097107;19;20115;-80
2024/02/27 14:42:15;;;;;;;5.53;3.30;;;;;;;9.18;100.00;101892.25;6007001;19;2004686;-81
2024/02/27 14:44:35;;;;;;;7.05;3.05;;;;;;;8.79;100.00;101889.41;6099687;19;20022;-80
2024/02/27 14:47:07;;;;;;;7.40;3.17;;;;;;;8.94;100.00;101885.66;6110025;19;20034;-81
2024/02/27 14:49:24;;;;;;;5.78;2.97;;;;;;;8.87;100.00;101889.28;6105270;19;20553;-80
2024/02/27 14:51:38;;;;;;;6.13;2.97;;;;;;;8.97;100.00;101889.09;6106986;19;20011;-81
2024/02/27 14:54:27;;;;;;;6.03;3.08;;;;;;;8.76;100.00;101889.47;6104587;19;20003;-81
2024/02/27 14:59:49;;;;;;;7.10;3.17;;;;;;;8.66;100.00;101878.28;6123930;19;20031;-80
2024/02/27 15:02:34;;;;;;;6.55;3.85;;;;;;;8.71;100.00;101879.03;6092513;19;20018;-79
2024/02/27 15:05:02;;;;;;;4.25;2.47;;;;;;;8.60;100.00;101877.50;5948129;19;2004626;-78
2024/02/27 15:07:39;;;;;;;4.78;2.88;;;;;;;9.04;100.00;101879.38;6090652;19;20026;-80
2024/02/27 15:09:52;;;;;;;6.18;3.47;;;;;;;9.45;100.00;101881.25;6091489;19;20006;-81
2024/02/27 15:12:00;;;;;;;;;;;;;;;9.66;100.00;101879.97;6089173;19;20011;-80
2024/02/27 15:14:10;;;;;;;5.97;3.03;;;;;;;9.83;100.00;101881.38;6087200;19;19911;-80
2024/02/27 15:16:25;;;;;;;4.35;2.58;;;;;;;10.00;100.00;101879.25;6089308;19;20019;-81
2024/02/27 15:19:04;;;;;;;6.13;2.72;;;;;;;9.86;100.00;101878.69;6091923;19;20466;-83
2024/02/27 15:21:36;;;;;;;5.72;3.00;;;;;;;9.61;100.00;101888.81;5987928;19;2004671;-82
2024/02/27 15:23:50;;;;;;;6.03;3.03;;;;;;;9.58;100.00;101884.47;6090058;19;20010;-80
2024/02/27 15:25:57;;;;;;;7.97;3.60;;;;;;;9.76;100.00;101887.66;6090150;19;20006;-79
2024/02/27 15:28:10;;;;;;;6.25;2.90;;;;;;;9.62;100.00;101891.41;6055749;19;20089;-79
2024/02/27 15:30:38;;;;;;;4.90;2.60;;;;;;;9.23;100.00;101893.03;6089692;19;20625;-79